sensor_id;sensor_type;location;lat;lon;timestamp;pressure;altitude;pressure_sealevel;temperature;humidity
77110;BME280;66062;52.464;16.922;2023-07-20T00:01:10;99970.56;;;17.27;99.84
77110;BME280;66062;52.464;16.922;2023-07-20T00:03:35;99970.34;;;17.22;100.00
77110;BME280;66062;52.464;16.922;2023-07-20T00:06:01;99972.44;;;17.26;100.00
77110;BME280;66062;52.464;16.922;2023-07-20T00:08:26;99978.84;;;17.25;100.00
77110;BME280;66062;52.464;16.922;2023-07-20T00:10:51;99986.34;;;17.30;99.61
77110;BME280;66062;52.464;16.922;2023-07-20T00:13:17;99987.38;;;17.29;100.00
77110;BME280;66062;52.464;16.922;2023-07-20T00:15:44;99981.59;;;17.32;100.00
77110;BME280;66062;52.464;16.922;2023-07-20T00:18:09;99983.16;;;17.20;100.00
77110;BME280;66062;52.464;16.922;2023-07-20T00:20:34;99973.09;;;17.00;100.00
77110;BME280;66062;52.464;16.922;2023-07-20T00:23:00;99971.00;;;17.02;100.00
77110;BME280;66062;52.464;16.922;2023-07-20T00:25:26;99969.38;;;17.01;100.00
77110;BME280;66062;52.464;16.922;2023-07-20T00:27:51;99969.66;;;16.85;100.00
77110;BME280;66062;52.464;16.922;2023-07-20T00:30:16;99980.88;;;16.89;100.00
77110;BME280;66062;52.464;16.922;2023-07-20T00:32:42;99985.53;;;17.01;100.00
77110;BME280;66062;52.464;16.922;2023-07-20T00:35:08;99981.06;;;17.15;100.00
77110;BME280;66062;52.464;16.922;2023-07-20T00:37:34;99989.44;;;17.27;100.00
77110;BME280;66062;52.464;16.922;2023-07-20T00:39:59;99998.22;;;17.35;100.00
77110;BME280;66062;52.464;16.922;2023-07-20T00:42:25;100000.72;;;17.37;100.00
77110;BME280;66062;52.464;16.922;2023-07-20T00:44:50;100005.63;;;17.27;100.00
77110;BME280;66062;52.464;16.922;2023-07-20T00:47:15;100005.56;;;17.20;100.00
77110;BME280;66062;52.464;16.922;2023-07-20T00:49:41;100000.38;;;17.19;100.00
77110;BME280;66062;52.464;16.922;2023-07-20T00:52:07;99994.38;;;17.23;100.00
77110;BME280;66062;52.464;16.922;2023-07-20T00:54:33;99996.34;;;17.08;100.00
77110;BME280;66062;52.464;16.922;2023-07-20T00:57:00;99998.38;;;16.99;100.00
77110;BME280;66062;52.464;16.922;2023-07-20T00:59:26;99996.22;;;16.88;100.00
77110;BME280;66062;52.464;16.922;2023-07-20T01:01:52;100003.75;;;16.72;100.00
77110;BME280;66062;52.464;16.922;2023-07-20T01:04:18;100000.84;;;16.73;100.00
77110;BME280;66062;52.464;16.922;2023-07-20T01:12:12;100010.91;;;16.43;100.00
77110;BME280;66062;52.464;16.922;2023-07-20T01:14:39;100010.09;;;16.43;100.00
77110;BME280;66062;52.464;16.922;2023-07-20T01:17:04;100008.03;;;16.45;100.00
77110;BME280;66062;52.464;16.922;2023-07-20T01:19:29;100002.63;;;16.59;100.00
77110;BME280;66062;52.464;16.922;2023-07-20T01:21:59;100010.16;;;16.28;100.00
77110;BME280;66062;52.464;16.922;2023-07-20T01:27:32;100001.38;;;16.19;100.00
77110;BME280;66062;52.464;16.922;2023-07-20T01:32:49;99998.47;;;16.21;100.00
77110;BME280;66062;52.464;16.922;2023-07-20T01:35:16;99998.13;;;16.31;100.00
77110;BME280;66062;52.464;16.922;2023-07-20T01:37:44;100002.00;;;16.43;100.00
77110;BME280;66062;52.464;16.922;2023-07-20T01:40:13;99996.94;;;16.33;100.00
77110;BME280;66062;52.464;16.922;2023-07-20T01:42:43;99984.16;;;16.20;100.00
77110;BME280;66062;52.464;16.922;2023-07-20T01:45:10;99988.00;;;16.11;100.00
77110;BME280;66062;52.464;16.922;2023-07-20T01:47:35;99972.25;;;16.08;100.00
77110;BME280;66062;52.464;16.922;2023-07-20T01:50:01;99977.75;;;16.21;100.00
77110;BME280;66062;52.464;16.922;2023-07-20T01:52:26;99976.47;;;16.17;100.00
77110;BME280;66062;52.464;16.922;2023-07-20T01:54:52;99975.81;;;16.15;100.00
77110;BME280;66062;52.464;16.922;2023-07-20T01:57:17;99980.19;;;16.16;100.00
77110;BME280;66062;52.464;16.922;2023-07-20T01:59:42;99985.13;;;16.13;100.00
77110;BME280;66062;52.464;16.922;2023-07-20T02:02:08;99985.13;;;16.13;100.00
77110;BME280;66062;52.464;16.922;2023-07-20T02:04:33;99987.03;;;15.98;100.00
77110;BME280;66062;52.464;16.922;2023-07-20T02:06:59;99990.81;;;16.03;100.00
77110;BME280;66062;52.464;16.922;2023-07-20T02:09:24;99984.91;;;15.93;100.00
77110;BME280;66062;52.464;16.922;2023-07-20T02:11:49;99988.75;;;16.05;100.00
77110;BME280;66062;52.464;16.922;2023-07-20T02:14:15;99997.56;;;16.14;100.00
77110;BME280;66062;52.464;16.922;2023-07-20T02:16:40;99996.75;;;16.13;100.00
77110;BME280;66062;52.464;16.922;2023-07-20T02:19:06;100000.44;;;16.12;100.00
77110;BME280;66062;52.464;16.922;2023-07-20T02:21:32;99999.25;;;16.00;100.00
77110;BME280;66062;52.464;16.922;2023-07-20T02:23:58;99996.22;;;16.03;100.00
77110;BME280;66062;52.464;16.922;2023-07-20T02:26:23;99997.41;;;16.01;100.00
77110;BME280;66062;52.464;16.922;2023-07-20T02:28:48;99993.34;;;16.05;100.00
77110;BME280;66062;52.464;16.922;2023-07-20T02:31:14;99998.72;;;16.05;100.00
77110;BME280;66062;52.464;16.922;2023-07-20T02:33:39;100004.47;;;16.02;100.00
77110;BME280;66062;52.464;16.922;2023-07-20T02:36:05;100011.53;;;16.03;100.00
77110;BME280;66062;52.464;16.922;2023-07-20T02:38:30;100011.69;;;16.01;100.00
77110;BME280;66062;52.464;16.922;2023-07-20T02:40:55;100012.63;;;16.08;100.00
77110;BME280;66062;52.464;16.922;2023-07-20T02:43:21;100010.19;;;16.13;100.00
77110;BME280;66062;52.464;16.922;2023-07-20T02:45:46;100006.22;;;16.09;100.00
77110;BME280;66062;52.464;16.922;2023-07-20T02:48:12;100005.69;;;15.99;100.00
77110;BME280;66062;52.464;16.922;2023-07-20T02:50:37;100013.38;;;16.02;100.00
77110;BME280;66062;52.464;16.922;2023-07-20T02:53:02;100004.91;;;16.05;100.00
77110;BME280;66062;52.464;16.922;2023-07-20T02:55:28;99996.22;;;16.03;100.00
77110;BME280;66062;52.464;16.922;2023-07-20T02:57:53;99996.84;;;16.05;100.00
77110;BME280;66062;52.464;16.922;2023-07-20T03:00:19;99994.13;;;16.05;100.00
77110;BME280;66062;52.464;16.922;2023-07-20T03:02:48;99993.53;;;16.03;100.00
77110;BME280;66062;52.464;16.922;2023-07-20T03:05:14;99988.72;;;15.99;100.00
77110;BME280;66062;52.464;16.922;2023-07-20T03:07:42;99997.41;;;16.01;100.00
77110;BME280;66062;52.464;16.922;2023-07-20T03:10:09;100005.31;;;16.02;100.00
77110;BME280;66062;52.464;16.922;2023-07-20T03:12:35;100004.84;;;15.99;100.00
77110;BME280;66062;52.464;16.922;2023-07-20T03:15:02;100009.13;;;15.93;100.00
77110;BME280;66062;52.464;16.922;2023-07-20T03:17:29;100013.13;;;15.97;100.00
77110;BME280;66062;52.464;16.922;2023-07-20T03:19:54;100014.03;;;16.04;100.00
77110;BME280;66062;52.464;16.922;2023-07-20T03:22:19;100012.06;;;16.13;100.00
77110;BME280;66062;52.464;16.922;2023-07-20T03:24:46;100007.88;;;16.10;100.00
77110;BME280;66062;52.464;16.922;2023-07-20T03:27:12;100016.06;;;16.02;100.00
77110;BME280;66062;52.464;16.922;2023-07-20T03:29:37;100023.13;;;16.03;100.00
77110;BME280;66062;52.464;16.922;2023-07-20T03:32:03;100014.03;;;16.04;100.00
77110;BME280;66062;52.464;16.922;2023-07-20T03:34:28;100015.94;;;16.10;100.00
77110;BME280;66062;52.464;16.922;2023-07-20T03:36:54;100019.41;;;16.04;100.00
77110;BME280;66062;52.464;16.922;2023-07-20T03:39:19;100019.03;;;16.07;100.00
77110;BME280;66062;52.464;16.922;2023-07-20T03:41:45;100026.84;;;16.02;100.00
77110;BME280;66062;52.464;16.922;2023-07-20T03:44:10;100016.81;;;15.96;100.00
77110;BME280;66062;52.464;16.922;2023-07-20T03:46:35;100012.72;;;16.00;100.00
77110;BME280;66062;52.464;16.922;2023-07-20T03:49:01;100008.00;;;16.02;100.00
77110;BME280;66062;52.464;16.922;2023-07-20T03:51:26;100013.91;;;16.12;100.00
77110;BME280;66062;52.464;16.922;2023-07-20T03:53:51;100017.25;;;16.14;100.00
77110;BME280;66062;52.464;16.922;2023-07-20T03:56:17;100019.78;;;16.01;100.00
77110;BME280;66062;52.464;16.922;2023-07-20T03:58:42;100026.94;;;16.09;100.00
77110;BME280;66062;52.464;16.922;2023-07-20T04:01:08;100021.53;;;16.09;100.00
77110;BME280;66062;52.464;16.922;2023-07-20T04:03:35;100016.72;;;16.04;100.00
77110;BME280;66062;52.464;16.922;2023-07-20T04:06:00;100018.91;;;16.15;100.00
77110;BME280;66062;52.464;16.922;2023-07-20T04:08:26;100015.41;;;16.15;100.00
77110;BME280;66062;52.464;16.922;2023-07-20T04:10:51;100019.91;;;16.29;100.00
77110;BME280;66062;52.464;16.922;2023-07-20T04:13:17;100020.34;;;16.33;100.00
77110;BME280;66062;52.464;16.922;2023-07-20T04:15:42;100026.38;;;16.35;100.00
77110;BME280;66062;52.464;16.922;2023-07-20T04:18:08;100028.94;;;16.43;100.00
77110;BME280;66062;52.464;16.922;2023-07-20T04:20:33;100017.50;;;16.41;100.00
77110;BME280;66062;52.464;16.922;2023-07-20T04:22:59;100021.50;;;16.45;100.00
77110;BME280;66062;52.464;16.922;2023-07-20T04:25:24;100020.28;;;16.47;100.00
77110;BME280;66062;52.464;16.922;2023-07-20T04:27:49;100016.97;;;16.45;100.00
77110;BME280;66062;52.464;16.922;2023-07-20T04:30:17;100023.13;;;16.39;100.00
77110;BME280;66062;52.464;16.922;2023-07-20T04:32:46;100018.31;;;16.35;100.00
77110;BME280;66062;52.464;16.922;2023-07-20T04:35:17;100010.28;;;16.41;100.00
77110;BME280;66062;52.464;16.922;2023-07-20T04:37:43;100012.19;;;16.47;100.00
77110;BME280;66062;52.464;16.922;2023-07-20T04:40:15;100011.03;;;16.56;100.00
77110;BME280;66062;52.464;16.922;2023-07-20T04:42:40;100005.94;;;16.61;100.00
77110;BME280;66062;52.464;16.922;2023-07-20T04:45:07;100013.66;;;16.64;100.00
77110;BME280;66062;52.464;16.922;2023-07-20T04:47:33;100010.47;;;16.61;100.00
77110;BME280;66062;52.464;16.922;2023-07-20T04:49:58;100011.78;;;16.65;100.00
77110;BME280;66062;52.464;16.922;2023-07-20T04:52:23;100007.59;;;16.84;100.00
77110;BME280;66062;52.464;16.922;2023-07-20T04:54:49;100020.63;;;17.08;100.00
77110;BME280;66062;52.464;16.922;2023-07-20T04:57:14;100018.88;;;17.22;100.00
77110;BME280;66062;52.464;16.922;2023-07-20T04:59:40;100017.19;;;17.21;100.00
77110;BME280;66062;52.464;16.922;2023-07-20T05:02:05;100014.69;;;17.19;100.00
77110;BME280;66062;52.464;16.922;2023-07-20T05:04:31;100015.75;;;16.97;100.00
77110;BME280;66062;52.464;16.922;2023-07-20T05:06:56;100019.53;;;17.02;100.00
77110;BME280;66062;52.464;16.922;2023-07-20T05:09:21;100017.56;;;17.18;100.00
77110;BME280;66062;52.464;16.922;2023-07-20T05:11:48;100016.50;;;17.40;100.00
77110;BME280;66062;52.464;16.922;2023-07-20T05:14:13;100023.38;;;17.49;98.84
77110;BME280;66062;52.464;16.922;2023-07-20T05:16:39;100025.59;;;17.67;98.37
77110;BME280;66062;52.464;16.922;2023-07-20T05:19:04;100031.25;;;17.78;95.49
77110;BME280;66062;52.464;16.922;2023-07-20T05:21:29;100035.63;;;17.79;96.33
77110;BME280;66062;52.464;16.922;2023-07-20T05:23:55;100030.31;;;17.99;95.54
77110;BME280;66062;52.464;16.922;2023-07-20T05:26:20;100023.72;;;18.15;94.29
77110;BME280;66062;52.464;16.922;2023-07-20T05:28:45;100026.38;;;18.08;92.55
77110;BME280;66062;52.464;16.922;2023-07-20T05:31:11;100025.53;;;18.01;92.52
77110;BME280;66062;52.464;16.922;2023-07-20T05:33:36;100033.44;;;18.03;92.98
77110;BME280;66062;52.464;16.922;2023-07-20T05:36:02;100027.38;;;17.94;93.35
77110;BME280;66062;52.464;16.922;2023-07-20T05:38:27;100026.00;;;18.11;92.15
77110;BME280;66062;52.464;16.922;2023-07-20T05:40:52;100030.59;;;18.30;91.66
77110;BME280;66062;52.464;16.922;2023-07-20T05:43:24;100033.00;;;18.66;89.09
77110;BME280;66062;52.464;16.922;2023-07-20T05:45:49;100034.47;;;18.89;88.58
77110;BME280;66062;52.464;16.922;2023-07-20T05:48:15;100028.84;;;18.97;88.29
77110;BME280;66062;52.464;16.922;2023-07-20T05:50:42;100026.97;;;19.10;87.15
77110;BME280;66062;52.464;16.922;2023-07-20T05:53:12;100032.19;;;19.18;86.17
77110;BME280;66062;52.464;16.922;2023-07-20T05:55:38;100035.44;;;19.40;85.19
77110;BME280;66062;52.464;16.922;2023-07-20T05:58:04;100039.88;;;19.21;84.94
77110;BME280;66062;52.464;16.922;2023-07-20T06:00:31;100036.09;;;19.36;84.66
77110;BME280;66062;52.464;16.922;2023-07-20T06:02:57;100028.63;;;19.44;83.48
77110;BME280;66062;52.464;16.922;2023-07-20T06:05:22;100030.06;;;19.53;82.53
77110;BME280;66062;52.464;16.922;2023-07-20T06:07:50;100037.66;;;19.89;81.44
77110;BME280;66062;52.464;16.922;2023-07-20T06:10:15;100035.34;;;19.93;77.49
77110;BME280;66062;52.464;16.922;2023-07-20T06:12:41;100042.44;;;19.87;79.40
77110;BME280;66062;52.464;16.922;2023-07-20T06:15:24;100041.28;;;20.15;76.73
77110;BME280;66062;52.464;16.922;2023-07-20T06:17:50;100041.31;;;20.08;77.20
77110;BME280;66062;52.464;16.922;2023-07-20T06:20:16;100044.84;;;19.57;76.81
77110;BME280;66062;52.464;16.922;2023-07-20T06:22:41;100047.34;;;19.46;77.55
77110;BME280;66062;52.464;16.922;2023-07-20T06:25:07;100037.16;;;19.54;77.15
77110;BME280;66062;52.464;16.922;2023-07-20T06:27:33;100048.53;;;19.76;78.63
77110;BME280;66062;52.464;16.922;2023-07-20T06:29:58;100054.38;;;20.24;76.58
77110;BME280;66062;52.464;16.922;2023-07-20T06:32:24;100046.38;;;20.74;71.40
77110;BME280;66062;52.464;16.922;2023-07-20T06:34:49;100056.69;;;21.21;66.76
77110;BME280;66062;52.464;16.922;2023-07-20T06:37:14;100058.13;;;21.67;65.77
77110;BME280;66062;52.464;16.922;2023-07-20T06:39:40;100058.28;;;22.08;62.96
77110;BME280;66062;52.464;16.922;2023-07-20T06:42:06;100052.16;;;22.13;62.34
77110;BME280;66062;52.464;16.922;2023-07-20T06:44:31;100055.22;;;22.94;58.17
77110;BME280;66062;52.464;16.922;2023-07-20T06:46:57;100047.13;;;23.93;54.30
77110;BME280;66062;52.464;16.922;2023-07-20T06:49:28;100048.69;;;24.40;53.36
77110;BME280;66062;52.464;16.922;2023-07-20T06:51:54;100044.19;;;23.94;56.56
77110;BME280;66062;52.464;16.922;2023-07-20T06:54:20;100044.88;;;24.41;53.93
77110;BME280;66062;52.464;16.922;2023-07-20T06:56:45;100043.31;;;25.95;49.32
77110;BME280;66062;52.464;16.922;2023-07-20T06:59:11;100042.19;;;26.67;45.60
77110;BME280;66062;52.464;16.922;2023-07-20T07:01:36;100042.78;;;28.32;41.96
77110;BME280;66062;52.464;16.922;2023-07-20T07:04:02;100044.66;;;28.16;41.53
77110;BME280;66062;52.464;16.922;2023-07-20T07:06:27;100053.56;;;26.54;44.59
77110;BME280;66062;52.464;16.922;2023-07-20T07:08:53;100057.38;;;25.66;47.00
77110;BME280;66062;52.464;16.922;2023-07-20T07:11:20;100050.56;;;24.68;48.23
77110;BME280;66062;52.464;16.922;2023-07-20T07:13:46;100052.44;;;24.11;50.60
77110;BME280;66062;52.464;16.922;2023-07-20T07:16:14;100061.88;;;24.60;49.56
77110;BME280;66062;52.464;16.922;2023-07-20T07:18:44;100055.97;;;25.46;47.21
77110;BME280;66062;52.464;16.922;2023-07-20T07:21:09;100053.78;;;24.65;47.81
77110;BME280;66062;52.464;16.922;2023-07-20T07:23:35;100062.94;;;24.59;48.18
77110;BME280;66062;52.464;16.922;2023-07-20T07:26:01;100058.97;;;24.95;47.46
77110;BME280;66062;52.464;16.922;2023-07-20T07:28:28;100063.69;;;24.54;49.52
77110;BME280;66062;52.464;16.922;2023-07-20T07:30:55;100057.25;;;23.80;50.88
77110;BME280;66062;52.464;16.922;2023-07-20T07:33:20;100063.44;;;23.64;51.89
77110;BME280;66062;52.464;16.922;2023-07-20T07:35:45;100062.84;;;22.86;53.60
77110;BME280;66062;52.464;16.922;2023-07-20T07:38:11;100062.56;;;23.06;53.76
77110;BME280;66062;52.464;16.922;2023-07-20T07:40:36;100061.53;;;23.30;52.94
77110;BME280;66062;52.464;16.922;2023-07-20T07:43:02;100061.63;;;24.61;48.57
77110;BME280;66062;52.464;16.922;2023-07-20T07:45:27;100059.34;;;24.42;49.02
77110;BME280;66062;52.464;16.922;2023-07-20T07:47:53;100061.63;;;24.61;48.42
77110;BME280;66062;52.464;16.922;2023-07-20T07:50:18;100060.13;;;24.25;49.71
77110;BME280;66062;52.464;16.922;2023-07-20T07:52:43;100056.53;;;23.97;51.12
77110;BME280;66062;52.464;16.922;2023-07-20T07:55:09;100067.94;;;23.82;51.71
77110;BME280;66062;52.464;16.922;2023-07-20T07:57:34;100057.81;;;25.41;48.33
77110;BME280;66062;52.464;16.922;2023-07-20T08:00:00;100048.63;;;27.41;44.32
77110;BME280;66062;52.464;16.922;2023-07-20T08:02:25;100052.47;;;28.49;39.24
77110;BME280;66062;52.464;16.922;2023-07-20T08:04:51;100060.06;;;24.65;46.68
77110;BME280;66062;52.464;16.922;2023-07-20T08:07:17;100050.34;;;26.13;44.83
77110;BME280;66062;52.464;16.922;2023-07-20T08:09:43;100049.91;;;28.23;39.04
77110;BME280;66062;52.464;16.922;2023-07-20T08:12:08;100064.25;;;23.76;48.49
77110;BME280;66062;52.464;16.922;2023-07-20T08:14:34;100066.31;;;23.98;48.65
77110;BME280;66062;52.464;16.922;2023-07-20T08:16:59;100065.09;;;25.69;44.28
77110;BME280;66062;52.464;16.922;2023-07-20T08:19:24;100047.47;;;26.47;42.05
77110;BME280;66062;52.464;16.922;2023-07-20T08:21:50;100058.75;;;25.85;43.91
77110;BME280;66062;52.464;16.922;2023-07-20T08:24:15;100054.91;;;25.86;43.60
77110;BME280;66062;52.464;16.922;2023-07-20T08:26:41;100061.56;;;25.18;44.86
77110;BME280;66062;52.464;16.922;2023-07-20T08:29:06;100066.50;;;23.44;50.79
77110;BME280;66062;52.464;16.922;2023-07-20T08:31:32;100065.53;;;23.27;50.96
77110;BME280;66062;52.464;16.922;2023-07-20T08:33:57;100066.78;;;22.90;54.28
77110;BME280;66062;52.464;16.922;2023-07-20T08:36:23;100068.03;;;22.46;58.52
77110;BME280;66062;52.464;16.922;2023-07-20T08:38:49;100077.22;;;22.15;60.69
77110;BME280;66062;52.464;16.922;2023-07-20T08:41:14;100077.97;;;22.22;59.23
77110;BME280;66062;52.464;16.922;2023-07-20T08:43:43;100070.03;;;21.84;60.57
77110;BME280;66062;52.464;16.922;2023-07-20T08:46:12;100080.47;;;21.87;63.18
77110;BME280;66062;52.464;16.922;2023-07-20T08:51:04;100080.56;;;21.38;62.63
77110;BME280;66062;52.464;16.922;2023-07-20T08:53:31;100094.22;;;20.93;66.99
77110;BME280;66062;52.464;16.922;2023-07-20T08:55:58;100101.75;;;20.08;74.44
77110;BME280;66062;52.464;16.922;2023-07-20T08:58:25;100109.59;;;19.66;76.91
77110;BME280;66062;52.464;16.922;2023-07-20T09:00:52;100103.94;;;19.41;80.02
77110;BME280;66062;52.464;16.922;2023-07-20T09:03:18;100120.63;;;19.57;78.26
77110;BME280;66062;52.464;16.922;2023-07-20T09:05:45;100121.88;;;19.42;79.91
77110;BME280;66062;52.464;16.922;2023-07-20T09:08:10;100116.69;;;19.14;80.98
77110;BME280;66062;52.464;16.922;2023-07-20T09:10:36;100113.09;;;18.87;80.28
77110;BME280;66062;52.464;16.922;2023-07-20T09:13:01;100113.69;;;18.63;80.50
77110;BME280;66062;52.464;16.922;2023-07-20T09:15:28;100141.69;;;18.49;82.43
77110;BME280;66062;52.464;16.922;2023-07-20T09:17:54;100156.84;;;18.02;85.42
77110;BME280;66062;52.464;16.922;2023-07-20T09:20:20;100150.72;;;17.59;88.91
77110;BME280;66062;52.464;16.922;2023-07-20T09:22:46;100149.63;;;17.53;92.91
77110;BME280;66062;52.464;16.922;2023-07-20T09:25:13;100142.13;;;17.28;93.36
77110;BME280;66062;52.464;16.922;2023-07-20T09:27:43;100134.28;;;17.05;97.35
77110;BME280;66062;52.464;16.922;2023-07-20T09:30:09;100146.78;;;17.13;99.52
77110;BME280;66062;52.464;16.922;2023-07-20T09:32:39;100137.22;;;17.59;97.05
77110;BME280;66062;52.464;16.922;2023-07-20T09:35:06;100123.91;;;18.80;95.23
77110;BME280;66062;52.464;16.922;2023-07-20T09:37:33;100132.06;;;22.12;76.22
77110;BME280;66062;52.464;16.922;2023-07-20T09:39:59;100123.38;;;22.99;67.90
77110;BME280;66062;52.464;16.922;2023-07-20T09:42:24;100123.91;;;24.64;60.84
77110;BME280;66062;52.464;16.922;2023-07-20T09:44:52;100118.13;;;26.50;51.43
77110;BME280;66062;52.464;16.922;2023-07-20T09:47:24;100118.44;;;28.07;45.01
77110;BME280;66062;52.464;16.922;2023-07-20T09:49:58;100116.94;;;28.37;46.17
77110;BME280;66062;52.464;16.922;2023-07-20T09:52:25;100114.13;;;29.04;44.45
77110;BME280;66062;52.464;16.922;2023-07-20T09:54:51;100107.78;;;28.88;42.02
77110;BME280;66062;52.464;16.922;2023-07-20T09:57:16;100110.00;;;29.57;43.56
77110;BME280;66062;52.464;16.922;2023-07-20T09:59:42;100113.25;;;30.00;43.35
77110;BME280;66062;52.464;16.922;2023-07-20T10:02:17;100116.13;;;30.39;42.79
77110;BME280;66062;52.464;16.922;2023-07-20T10:04:45;100114.16;;;30.98;42.63
77110;BME280;66062;52.464;16.922;2023-07-20T10:07:11;100116.09;;;30.54;42.42
77110;BME280;66062;52.464;16.922;2023-07-20T10:09:39;100106.72;;;29.65;43.67
77110;BME280;66062;52.464;16.922;2023-07-20T10:12:07;100107.34;;;30.37;39.46
77110;BME280;66062;52.464;16.922;2023-07-20T10:14:38;100096.81;;;29.39;43.14
77110;BME280;66062;52.464;16.922;2023-07-20T10:17:07;100099.66;;;27.89;45.89
77110;BME280;66062;52.464;16.922;2023-07-20T10:19:49;100102.28;;;29.74;42.09
77110;BME280;66062;52.464;16.922;2023-07-20T10:22:25;100102.09;;;30.40;39.69
77110;BME280;66062;52.464;16.922;2023-07-20T10:24:51;100096.75;;;31.08;37.68
77110;BME280;66062;52.464;16.922;2023-07-20T10:27:20;100099.28;;;30.94;37.48
77110;BME280;66062;52.464;16.922;2023-07-20T10:29:46;100099.28;;;28.95;38.87
77110;BME280;66062;52.464;16.922;2023-07-20T10:32:12;100094.84;;;28.79;40.11
77110;BME280;66062;52.464;16.922;2023-07-20T10:34:37;100103.16;;;30.49;38.68
77110;BME280;66062;52.464;16.922;2023-07-20T10:37:03;100099.72;;;30.78;37.17
77110;BME280;66062;52.464;16.922;2023-07-20T10:39:31;100099.53;;;29.74;40.40
77110;BME280;66062;52.464;16.922;2023-07-20T10:42:01;100100.69;;;30.48;37.15
77110;BME280;66062;52.464;16.922;2023-07-20T10:44:27;100101.41;;;28.05;41.21
77110;BME280;66062;52.464;16.922;2023-07-20T10:46:59;100089.38;;;28.99;38.74
77110;BME280;66062;52.464;16.922;2023-07-20T10:49:25;100089.09;;;30.56;36.44
77110;BME280;66062;52.464;16.922;2023-07-20T10:52:12;100096.53;;;29.25;37.22
77110;BME280;66062;52.464;16.922;2023-07-20T10:54:47;100090.41;;;28.68;38.32
77110;BME280;66062;52.464;16.922;2023-07-20T10:57:24;100086.34;;;29.56;38.40
77110;BME280;66062;52.464;16.922;2023-07-20T11:00:07;100074.75;;;30.54;38.10
77110;BME280;66062;52.464;16.922;2023-07-20T11:02:42;100071.38;;;30.08;37.30
77110;BME280;66062;52.464;16.922;2023-07-20T11:05:07;100071.13;;;31.36;34.66
77110;BME280;66062;52.464;16.922;2023-07-20T11:07:37;100073.19;;;30.33;35.58
77110;BME280;66062;52.464;16.922;2023-07-20T11:10:13;100052.25;;;30.37;35.17
77110;BME280;66062;52.464;16.922;2023-07-20T11:12:40;100057.34;;;30.64;35.92
77110;BME280;66062;52.464;16.922;2023-07-20T11:15:06;100053.03;;;31.25;34.53
77110;BME280;66062;52.464;16.922;2023-07-20T11:17:32;100055.91;;;31.44;33.22
77110;BME280;66062;52.464;16.922;2023-07-20T11:19:59;100053.94;;;31.44;34.38
77110;BME280;66062;52.464;16.922;2023-07-20T11:22:30;100049.97;;;31.56;32.38
77110;BME280;66062;52.464;16.922;2023-07-20T11:24:56;100049.16;;;30.92;32.40
77110;BME280;66062;52.464;16.922;2023-07-20T11:27:22;100059.00;;;30.65;32.99
77110;BME280;66062;52.464;16.922;2023-07-20T11:29:48;100046.13;;;29.91;33.56
77110;BME280;66062;52.464;16.922;2023-07-20T11:32:20;100045.69;;;29.38;34.48
77110;BME280;66062;52.464;16.922;2023-07-20T11:34:47;100045.41;;;28.99;37.62
77110;BME280;66062;52.464;16.922;2023-07-20T11:37:13;100042.84;;;29.73;33.82
77110;BME280;66062;52.464;16.922;2023-07-20T11:39:38;100040.00;;;30.09;32.29
77110;BME280;66062;52.464;16.922;2023-07-20T11:42:04;100042.03;;;29.68;32.49
77110;BME280;66062;52.464;16.922;2023-07-20T11:44:30;100052.19;;;29.72;33.47
77110;BME280;66062;52.464;16.922;2023-07-20T11:47:06;100053.28;;;29.97;32.43
77110;BME280;66062;52.464;16.922;2023-07-20T11:49:36;100061.59;;;29.41;32.90
77110;BME280;66062;52.464;16.922;2023-07-20T11:52:03;100058.19;;;28.33;36.05
77110;BME280;66062;52.464;16.922;2023-07-20T11:54:29;100058.06;;;29.15;33.44
77110;BME280;66062;52.464;16.922;2023-07-20T11:56:55;100054.56;;;30.14;31.77
77110;BME280;66062;52.464;16.922;2023-07-20T11:59:23;100052.06;;;31.11;30.37
77110;BME280;66062;52.464;16.922;2023-07-20T12:01:49;100060.47;;;30.52;30.39
77110;BME280;66062;52.464;16.922;2023-07-20T12:04:14;100049.59;;;30.22;30.80
77110;BME280;66062;52.464;16.922;2023-07-20T12:06:40;100050.69;;;30.21;31.60
77110;BME280;66062;52.464;16.922;2023-07-20T12:09:05;100056.03;;;30.56;30.65
77110;BME280;66062;52.464;16.922;2023-07-20T12:11:35;100048.47;;;30.17;31.15
77110;BME280;66062;52.464;16.922;2023-07-20T12:14:02;100059.41;;;29.23;33.90
77110;BME280;66062;52.464;16.922;2023-07-20T12:16:29;100051.53;;;28.14;36.08
77110;BME280;66062;52.464;16.922;2023-07-20T12:19:12;100047.00;;;28.70;34.00
77110;BME280;66062;52.464;16.922;2023-07-20T12:21:40;100038.53;;;29.07;33.62
77110;BME280;66062;52.464;16.922;2023-07-20T12:24:07;100038.13;;;27.75;35.83
77110;BME280;66062;52.464;16.922;2023-07-20T12:26:34;100038.75;;;27.87;36.48
77110;BME280;66062;52.464;16.922;2023-07-20T12:29:01;100032.47;;;29.25;33.71
77110;BME280;66062;52.464;16.922;2023-07-20T12:31:27;100019.09;;;30.03;32.48
77110;BME280;66062;52.464;16.922;2023-07-20T12:33:54;100025.88;;;30.26;30.97
77110;BME280;66062;52.464;16.922;2023-07-20T12:36:22;100024.03;;;30.94;31.16
77110;BME280;66062;52.464;16.922;2023-07-20T12:38:48;100021.13;;;29.67;31.63
77110;BME280;66062;52.464;16.922;2023-07-20T12:41:14;100028.34;;;29.12;31.30
77110;BME280;66062;52.464;16.922;2023-07-20T12:43:44;100026.94;;;28.59;32.69
77110;BME280;66062;52.464;16.922;2023-07-20T12:46:10;100038.47;;;27.89;33.37
77110;BME280;66062;52.464;16.922;2023-07-20T12:48:37;100054.66;;;28.53;35.16